Airport View

Enter AWOS ICAO identifier for current METAR.

ex. KFNL

KSUE 210056Z AUTO 11004KT 1/4SM FG OVC003 17/17 A3012 RMK AO2 SLP198 T01720172 RVRNO

21 Sep 2019 01:18

Frequency: 128.325

Phone: 920-743-7087

Other Area AWOS: KMNM - K3D2 - KOCQ - KGRB

TAF KGRB 202343Z 2100/2124 13004KT P6SM SCT120 FM210600 14004KT 4SM BR SCT035 FM210800 16004KT 1 1/2SM BR SCT004 BKN020 FM211500 19009G15KT P6SM SCT045 FM212000 19015G24KT P6SM -SHRA OVC040 TEMPO 2120/2124 3SM +TSRA OVC025CB